Time;durP1;ratioP1;P1;durP2;ratioP2;P2;SDS_P1;SDS_P2;PMS_P1;PMS_P2;Temp;Humidity;BMP_temperature;BMP_pressure;BME280_temperature;BME280_humidity;BME280_pressure;Samples;Min_cycle;Max_cycle;Signal;HPM_P1;HPM_P2
2023/05/13 00:02:20;;;;;;;7.05;6.40;;;15.20;63.50;;;;;;5068764;28;20059;-49
2023/05/13 00:04:47;;;;;;;6.90;6.30;;;15.20;63.40;;;;;;5048816;28;20033;-49
2023/05/13 00:07:14;;;;;;;8.02;6.43;;;15.20;63.20;;;;;;5061283;28;20049;-46
2023/05/13 00:09:41;;;;;;;6.50;5.95;;;15.20;63.00;;;;;;5067743;28;20043;-46
2023/05/13 00:12:08;;;;;;;5.80;5.22;;;15.10;62.80;;;;;;5067538;28;20436;-48
2023/05/13 00:14:36;;;;;;;7.07;5.63;;;15.10;62.60;;;;;;5027538;28;20068;-45
2023/05/13 00:17:03;;;;;;;6.13;5.53;;;15.10;62.40;;;;;;5050672;28;20052;-47
2023/05/13 00:19:33;;;;;;;5.75;5.25;;;15.10;62.30;;;;;;5065430;28;20126;-46
2023/05/13 00:22:00;;;;;;;6.07;5.40;;;15.00;62.20;;;;;;5072965;28;20049;-45
2023/05/13 00:24:27;;;;;;;5.55;5.05;;;15.00;62.20;;;;;;5071599;28;20059;-44
2023/05/13 00:26:53;;;;;;;6.38;5.53;;;14.90;62.80;;;;;;5058985;28;20754;-45
2023/05/13 00:29:21;;;;;;;6.88;6.18;;;14.90;62.20;;;;;;5066292;28;20045;-47
2023/05/13 00:31:48;;;;;;;6.68;6.07;;;14.90;62.40;;;;;;5072394;28;20029;-46
2023/05/13 00:34:15;;;;;;;6.28;5.78;;;14.80;62.50;;;;;;5048327;28;20037;-47
2023/05/13 00:36:42;;;;;;;6.63;5.93;;;14.80;62.60;;;;;;5051520;28;20051;-46
2023/05/13 00:39:10;;;;;;;6.55;5.97;;;14.80;62.80;;;;;;5070955;28;20044;-47
2023/05/13 00:41:37;;;;;;;7.43;5.90;;;14.70;62.70;;;;;;5072235;28;20123;-47
2023/05/13 00:44:06;;;;;;;6.38;5.72;;;14.70;62.70;;;;;;5065608;28;20604;-47
2023/05/13 00:46:33;;;;;;;6.65;6.05;;;14.70;62.70;;;;;;5050971;28;20064;-49
2023/05/13 00:49:10;;;;;;;5.75;5.25;;;14.70;62.60;;;;;;5063371;28;20055;-46
2023/05/13 00:51:37;;;;;;;6.68;5.63;;;14.60;62.50;;;;;;5054398;28;20040;-46
2023/05/13 00:54:10;;;;;;;5.38;4.97;;;14.60;62.30;;;;;;5063491;28;20139;-45
2023/05/13 00:56:41;;;;;;;5.85;5.38;;;14.60;62.40;;;;;;5033060;28;20051;-48
2023/05/13 00:59:08;;;;;;;7.97;6.30;;;14.50;62.30;;;;;;5052233;28;20501;-50
2023/05/13 01:02:05;;;;;;;7.00;6.30;;;14.50;62.40;;;;;;5068848;28;20127;-46
2023/05/13 01:05:03;;;;;;;6.82;6.22;;;14.50;62.80;;;;;;5031377;28;20045;-45
2023/05/13 01:08:02;;;;;;;6.90;6.20;;;14.50;62.90;;;;;;5064018;28;20033;-47
2023/05/13 01:10:48;;;;;;;7.05;6.45;;;14.40;62.80;;;;;;5071104;28;20041;-48
2023/05/13 01:13:23;;;;;;;6.78;6.18;;;14.40;62.50;;;;;;5041113;28;20072;-50
2023/05/13 01:16:10;;;;;;;7.80;7.03;;;14.30;62.70;;;;;;5049158;28;20396;-46
2023/05/13 01:18:40;;;;;;;7.63;6.95;;;14.30;62.90;;;;;;5050867;28;20045;-49
2023/05/13 01:21:10;;;;;;;7.70;7.05;;;14.20;62.90;;;;;;5057456;28;20098;-47
2023/05/13 01:23:37;;;;;;;8.13;7.32;;;14.30;63.00;;;;;;5052781;28;20048;-46
2023/05/13 01:26:04;;;;;;;7.43;6.72;;;14.20;63.00;;;;;;5054906;28;20079;-48
2023/05/13 01:28:41;;;;;;;7.63;6.93;;;14.20;63.70;;;;;;5027902;28;20045;-49
2023/05/13 01:31:11;;;;;;;7.82;7.13;;;14.20;63.30;;;;;;5027235;28;20445;-47
2023/05/13 01:33:39;;;;;;;8.30;7.45;;;14.20;63.20;;;;;;5046525;28;20033;-46
2023/05/13 01:36:09;;;;;;;9.43;8.43;;;14.20;63.20;;;;;;5048764;28;20053;-46
2023/05/13 01:38:38;;;;;;;9.52;8.63;;;14.10;63.70;;;;;;5052965;28;20079;-46
2023/05/13 01:41:10;;;;;;;9.50;8.60;;;14.10;64.30;;;;;;5053644;28;20045;-45
2023/05/13 01:43:37;;;;;;;8.95;8.10;;;14.10;64.60;;;;;;5049376;28;20056;-48
2023/05/13 01:46:11;;;;;;;9.35;8.20;;;14.10;64.80;;;;;;5042235;28;20036;-48
2023/05/13 01:48:39;;;;;;;8.13;7.32;;;14.20;64.90;;;;;;5059176;28;20140;-49
2023/05/13 01:51:08;;;;;;;8.00;7.10;;;14.20;64.40;;;;;;5053250;28;20029;-47
2023/05/13 01:53:37;;;;;;;7.63;6.93;;;14.20;64.20;;;;;;5045953;28;20045;-46
2023/05/13 01:56:08;;;;;;;7.47;6.88;;;14.20;64.60;;;;;;5059764;28;20052;-44
2023/05/13 01:58:35;;;;;;;7.03;6.40;;;14.20;63.80;;;;;;5067943;28;20049;-49
2023/05/13 02:01:07;;;;;;;8.52;7.72;;;14.10;63.70;;;;;;5052088;28;20048;-47
2023/05/13 02:03:36;;;;;;;7.82;7.22;;;14.10;63.60;;;;;;5066146;28;20044;-49
2023/05/13 02:06:03;;;;;;;8.82;8.02;;;14.20;63.70;;;;;;5056076;28;20076;-48
2023/05/13 02:08:32;;;;;;;8.93;7.88;;;14.10;63.80;;;;;;5047335;28;20044;-48
2023/05/13 02:11:02;;;;;;;9.07;7.07;;;14.10;64.00;;;;;;5051830;28;20458;-46
2023/05/13 02:13:29;;;;;;;7.03;6.43;;;14.10;64.10;;;;;;5038922;28;20545;-46
2023/05/13 02:15:59;;;;;;;8.15;6.80;;;14.10;64.20;;;;;;5054623;28;20107;-49
2023/05/13 02:18:28;;;;;;;6.72;6.13;;;14.10;64.20;;;;;;5058489;28;20105;-46
2023/05/13 02:20:59;;;;;;;7.03;6.38;;;14.10;64.30;;;;;;5051966;28;20139;-46
2023/05/13 02:23:26;;;;;;;7.60;6.90;;;14.10;64.40;;;;;;5051642;28;20551;-45
2023/05/13 02:25:57;;;;;;;8.38;6.55;;;14.10;64.50;;;;;;5059281;28;20037;-45
2023/05/13 02:28:26;;;;;;;6.65;6.00;;;14.10;64.60;;;;;;5051306;28;20036;-45
2023/05/13 02:30:53;;;;;;;7.15;6.45;;;14.10;64.60;;;;;;5051864;28;20044;-46
2023/05/13 02:33:20;;;;;;;7.03;6.38;;;14.20;64.70;;;;;;5069968;28;20037;-47
2023/05/13 02:35:46;;;;;;;8.90;8.15;;;14.10;64.80;;;;;;5056503;28;20409;-45
2023/05/13 02:38:15;;;;;;;12.30;8.57;;;14.20;65.30;;;;;;5065225;28;20072;-50
2023/05/13 02:40:43;;;;;;;9.23;8.40;;;14.20;65.90;;;;;;5069452;28;20059;-45
2023/05/13 02:43:09;;;;;;;8.55;7.75;;;14.20;66.20;;;;;;5032651;28;20045;-46
2023/05/13 02:45:51;;;;;;;10.23;7.22;;;14.20;65.90;;;;;;5047738;28;20094;-46
2023/05/13 02:48:20;;;;;;;8.48;7.68;;;14.20;65.50;;;;;;5055861;28;20044;-45
2023/05/13 02:50:47;;;;;;;9.48;7.88;;;14.30;65.20;;;;;;5051416;28;20101;-49
2023/05/13 02:53:18;;;;;;;8.63;7.82;;;14.20;64.90;;;;;;5044813;28;20040;-45
2023/05/13 02:55:51;;;;;;;8.07;7.32;;;14.20;64.90;;;;;;5038764;28;20067;-47
2023/05/13 02:58:17;;;;;;;9.10;8.30;;;14.20;64.80;;;;;;5049511;28;20052;-46
2023/05/13 03:00:48;;;;;;;9.40;8.60;;;14.20;64.90;;;;;;5051318;28;20058;-45
2023/05/13 03:03:17;;;;;;;9.15;7.95;;;14.20;64.90;;;;;;5052205;28;20052;-46
2023/05/13 03:05:44;;;;;;;9.70;8.80;;;14.20;64.80;;;;;;5053945;28;20041;-47
2023/05/13 03:08:13;;;;;;;9.10;8.20;;;14.10;64.70;;;;;;5063884;28;20403;-45
2023/05/13 03:10:43;;;;;;;8.35;7.45;;;14.10;64.50;;;;;;5051403;28;20444;-46
2023/05/13 03:13:11;;;;;;;7.13;6.53;;;14.10;64.60;;;;;;5059259;28;20060;-46
2023/05/13 03:15:41;;;;;;;8.05;7.07;;;14.10;64.20;;;;;;5052588;28;20037;-47
2023/05/13 03:18:12;;;;;;;7.18;6.47;;;14.00;64.20;;;;;;5046294;28;20043;-45
2023/05/13 03:20:41;;;;;;;7.50;6.82;;;14.00;64.10;;;;;;5048234;28;20475;-46
2023/05/13 03:23:13;;;;;;;7.40;6.70;;;14.00;64.10;;;;;;5065177;28;20464;-48
2023/05/13 03:25:41;;;;;;;7.78;7.07;;;13.90;64.40;;;;;;5043495;28;20048;-49
2023/05/13 03:28:09;;;;;;;7.55;6.85;;;13.90;64.40;;;;;;5063862;28;20511;-48
2023/05/13 03:30:43;;;;;;;7.22;6.43;;;13.90;64.30;;;;;;5051828;28;20447;-47
2023/05/13 03:33:22;;;;;;;7.45;6.63;;;13.90;64.30;;;;;;5044759;28;20037;-45
2023/05/13 03:35:49;;;;;;;7.47;6.78;;;13.90;64.40;;;;;;5065135;28;20037;-46
2023/05/13 03:38:21;;;;;;;6.35;5.82;;;13.80;64.20;;;;;;5050908;28;20033;-47
2023/05/13 03:40:49;;;;;;;6.30;5.80;;;13.80;64.00;;;;;;5051616;28;20043;-50
2023/05/13 03:43:26;;;;;;;6.47;5.88;;;13.80;64.10;;;;;;5054290;28;20041;-47
2023/05/13 03:45:57;;;;;;;7.00;6.28;;;13.80;64.10;;;;;;5030538;28;20130;-48
2023/05/13 03:48:25;;;;;;;6.63;6.03;;;13.70;64.00;;;;;;5057210;28;20048;-46
2023/05/13 03:50:56;;;;;;;7.18;6.30;;;13.70;64.00;;;;;;5053727;28;20493;-45
2023/05/13 03:53:25;;;;;;;6.97;6.38;;;13.70;64.00;;;;;;5048953;28;20173;-45
2023/05/13 03:55:54;;;;;;;7.18;5.88;;;13.70;64.10;;;;;;5043283;28;20039;-46
2023/05/13 03:58:23;;;;;;;6.32;5.72;;;13.60;64.30;;;;;;5049633;28;20044;-47
2023/05/13 04:00:49;;;;;;;7.53;6.68;;;13.60;64.40;;;;;;5073338;28;20040;-47
2023/05/13 04:03:19;;;;;;;7.28;6.60;;;13.60;64.60;;;;;;5055356;28;20511;-45
2023/05/13 04:05:47;;;;;;;6.55;5.95;;;13.60;64.90;;;;;;5041074;28;20041;-46
2023/05/13 04:08:23;;;;;;;7.10;6.50;;;13.60;64.90;;;;;;5073040;28;20139;-45
2023/05/13 04:10:56;;;;;;;6.85;6.25;;;13.60;64.90;;;;;;5053218;28;20094;-46
2023/05/13 04:13:25;;;;;;;7.03;6.43;;;13.60;65.20;;;;;;5051188;28;20041;-45
2023/05/13 04:15:53;;;;;;;7.57;6.88;;;13.60;65.10;;;;;;5060115;28;20033;-47
2023/05/13 04:18:20;;;;;;;7.40;6.78;;;13.60;65.20;;;;;;5057198;28;20090;-45
2023/05/13 04:20:49;;;;;;;7.15;6.55;;;13.70;65.30;;;;;;5064438;28;20505;-46
2023/05/13 04:23:20;;;;;;;7.55;6.93;;;13.70;65.30;;;;;;5072437;28;20032;-46
2023/05/13 04:25:51;;;;;;;7.22;6.63;;;13.70;65.40;;;;;;5039120;28;20493;-47
2023/05/13 04:28:20;;;;;;;7.43;6.70;;;13.70;65.50;;;;;;5054162;28;20047;-49
2023/05/13 04:30:51;;;;;;;7.35;6.65;;;13.70;65.40;;;;;;5046717;28;20432;-46
2023/05/13 04:33:20;;;;;;;7.82;7.03;;;13.70;65.40;;;;;;5054394;28;20037;-48
2023/05/13 04:35:49;;;;;;;7.57;6.70;;;13.80;65.60;;;;;;5058641;28;20125;-47
2023/05/13 04:38:16;;;;;;;7.50;6.40;;;13.80;65.60;;;;;;5047412;28;20524;-49
2023/05/13 04:40:46;;;;;;;7.80;7.10;;;13.80;65.70;;;;;;5059778;22;20104;-44
2023/05/13 04:43:20;;;;;;;7.32;6.57;;;13.80;65.80;;;;;;5018604;28;20152;-45
2023/05/13 04:45:55;;;;;;;6.93;6.30;;;13.80;65.80;;;;;;5036668;28;20041;-46
2023/05/13 04:48:22;;;;;;;7.30;6.70;;;13.80;65.90;;;;;;5032716;28;20049;-44
2023/05/13 04:50:51;;;;;;;6.93;6.40;;;13.80;66.00;;;;;;5019239;28;20046;-47
2023/05/13 04:53:20;;;;;;;7.55;6.85;;;13.90;66.30;;;;;;5011260;28;20046;-48
2023/05/13 04:55:48;;;;;;;7.15;6.55;;;13.90;66.30;;;;;;5008624;28;20045;-46
2023/05/13 04:58:18;;;;;;;7.80;7.10;;;13.90;66.30;;;;;;5015243;28;20076;-45
2023/05/13 05:00:44;;;;;;;8.18;7.43;;;13.90;66.40;;;;;;4998623;28;20069;-45
2023/05/13 05:03:18;;;;;;;7.88;7.18;;;13.90;66.50;;;;;;5012881;28;20156;-46
2023/05/13 05:05:47;;;;;;;8.88;8.18;;;14.00;66.80;;;;;;5013627;28;20045;-44
2023/05/13 05:08:15;;;;;;;9.70;8.80;;;14.00;66.90;;;;;;5010932;28;20507;-44
2023/05/13 05:10:45;;;;;;;10.00;9.13;;;14.00;67.30;;;;;;5027545;28;20037;-45
2023/05/13 05:13:13;;;;;;;8.57;7.68;;;14.10;67.30;;;;;;5013574;28;20129;-45
2023/05/13 05:15:42;;;;;;;9.30;8.38;;;14.10;67.30;;;;;;5009674;28;20045;-45
2023/05/13 05:18:10;;;;;;;8.48;7.70;;;14.10;67.20;;;;;;5029753;28;20439;-45
2023/05/13 05:20:38;;;;;;;9.40;8.50;;;14.20;67.30;;;;;;5014471;28;20048;-44
2023/05/13 05:23:09;;;;;;;11.65;9.07;;;14.20;67.40;;;;;;5013504;28;20054;-45
2023/05/13 05:25:37;;;;;;;9.93;8.95;;;14.20;67.50;;;;;;5014018;28;20072;-46
2023/05/13 05:28:04;;;;;;;10.45;9.35;;;14.30;67.80;;;;;;5029471;28;20395;-45
2023/05/13 05:30:38;;;;;;;11.48;10.38;;;14.30;67.80;;;;;;5030412;28;20055;-44
2023/05/13 05:33:18;;;;;;;11.25;10.18;;;14.30;68.40;;;;;;5006691;28;20041;-45
2023/05/13 05:35:54;;;;;;;10.15;9.30;;;14.40;67.80;;;;;;5013568;28;20045;-44
2023/05/13 05:38:24;;;;;;;10.80;9.80;;;14.40;67.80;;;;;;5012590;28;20103;-45
2023/05/13 05:40:56;;;;;;;10.02;9.02;;;14.50;67.60;;;;;;5013758;28;20410;-44
2023/05/13 05:43:26;;;;;;;11.13;10.00;;;14.60;67.60;;;;;;5010694;28;20073;-44
2023/05/13 05:45:57;;;;;;;11.82;10.35;;;14.60;67.60;;;;;;5009975;28;20425;-45
2023/05/13 05:48:25;;;;;;;11.55;10.38;;;14.70;67.70;;;;;;5031174;28;20038;-49
2023/05/13 05:50:54;;;;;;;11.52;10.35;;;14.70;67.80;;;;;;5013851;28;20445;-49
2023/05/13 05:53:25;;;;;;;11.63;10.45;;;14.70;67.70;;;;;;5010465;28;20061;-49
2023/05/13 05:55:53;;;;;;;12.15;10.68;;;14.80;67.80;;;;;;5012520;28;20061;-48
2023/05/13 05:58:20;;;;;;;12.07;10.88;;;14.90;67.80;;;;;;5013071;28;20059;-50
2023/05/13 06:00:47;;;;;;;11.05;9.95;;;14.90;68.10;;;;;;5013587;28;20132;-49
2023/05/13 06:03:20;;;;;;;12.40;11.20;;;15.00;67.90;;;;;;5010502;28;20049;-45
2023/05/13 06:05:47;;;;;;;12.32;11.05;;;15.00;67.90;;;;;;5013326;28;20144;-49
2023/05/13 06:08:18;;;;;;;10.40;9.38;;;15.00;68.00;;;;;;5013132;28;20037;-45
2023/05/13 06:10:44;;;;;;;11.45;10.35;;;15.10;67.80;;;;;;5031327;28;20037;-47
2023/05/13 06:13:14;;;;;;;12.27;10.00;;;15.10;67.80;;;;;;5009598;28;20037;-46
2023/05/13 06:15:41;;;;;;;11.35;10.23;;;15.20;67.50;;;;;;5027473;28;20044;-45
2023/05/13 06:18:10;;;;;;;11.20;9.85;;;15.20;67.40;;;;;;5010964;28;20047;-48
2023/05/13 06:20:37;;;;;;;11.52;10.20;;;15.30;67.60;;;;;;5011177;28;20787;-46
2023/05/13 06:23:03;;;;;;;13.63;9.57;;;15.30;67.40;;;;;;5011252;28;20470;-46
2023/05/13 06:25:30;;;;;;;11.00;10.05;;;15.40;67.50;;;;;;5028147;28;20057;-46
2023/05/13 06:27:57;;;;;;;13.35;10.27;;;15.40;67.60;;;;;;5009763;28;20045;-45
2023/05/13 06:30:25;;;;;;;12.35;10.15;;;15.40;67.60;;;;;;5029281;28;20041;-45
2023/05/13 06:32:56;;;;;;;10.35;9.38;;;15.50;67.70;;;;;;5029304;28;20029;-45
2023/05/13 06:35:28;;;;;;;10.60;9.50;;;15.60;67.60;;;;;;5007163;28;20461;-49
2023/05/13 06:37:55;;;;;;;14.10;10.35;;;15.60;67.40;;;;;;5029113;28;20107;-46
2023/05/13 06:40:22;;;;;;;11.48;10.35;;;15.70;67.60;;;;;;5012954;28;20096;-45
2023/05/13 06:42:53;;;;;;;11.30;10.05;;;15.70;67.70;;;;;;5007104;28;20045;-47
2023/05/13 06:45:27;;;;;;;12.43;10.48;;;15.80;67.70;;;;;;5008109;28;20069;-45
2023/05/13 06:47:56;;;;;;;11.15;10.02;;;15.80;67.50;;;;;;5011295;28;20037;-45
2023/05/13 06:50:23;;;;;;;12.38;11.07;;;15.90;67.60;;;;;;4998355;28;20493;-47
2023/05/13 06:52:52;;;;;;;11.10;9.80;;;16.00;68.00;;;;;;5000568;28;20037;-47
2023/05/13 06:55:19;;;;;;;12.80;9.88;;;16.00;67.40;;;;;;5024444;28;20564;-48
2023/05/13 06:57:46;;;;;;;10.98;9.85;;;16.10;66.80;;;;;;5029361;28;20041;-49
2023/05/13 07:00:16;;;;;;;11.25;10.15;;;16.20;66.80;;;;;;5031708;28;20075;-45
2023/05/13 07:02:43;;;;;;;10.35;9.35;;;16.20;66.40;;;;;;5024082;28;20045;-45
2023/05/13 07:05:10;;;;;;;10.57;9.50;;;16.30;66.00;;;;;;5028936;28;20045;-46
2023/05/13 07:07:37;;;;;;;10.98;9.95;;;16.40;66.20;;;;;;5032780;28;20041;-48
2023/05/13 07:10:04;;;;;;;11.88;10.18;;;16.40;66.10;;;;;;5029940;28;20123;-47
2023/05/13 07:12:32;;;;;;;11.30;10.13;;;16.50;66.10;;;;;;5028828;28;20042;-49
2023/05/13 07:14:58;;;;;;;10.50;9.10;;;16.50;65.40;;;;;;5027722;28;20061;-47
2023/05/13 07:17:29;;;;;;;13.25;8.88;;;16.60;64.80;;;;;;5028199;28;20060;-48
2023/05/13 07:19:56;;;;;;;10.48;9.48;;;16.70;64.80;;;;;;5028072;28;20072;-47
2023/05/13 07:22:23;;;;;;;10.05;9.15;;;16.80;64.50;;;;;;5027612;28;20048;-45
2023/05/13 07:24:50;;;;;;;10.18;9.07;;;16.80;64.20;;;;;;5027110;28;20486;-49
2023/05/13 07:27:17;;;;;;;10.13;9.07;;;16.90;63.90;;;;;;5027972;28;20116;-45
2023/05/13 07:29:43;;;;;;;10.63;9.48;;;16.90;64.20;;;;;;5027963;28;20128;-46
2023/05/13 07:32:10;;;;;;;9.10;8.18;;;17.00;64.20;;;;;;5026312;28;20052;-48
2023/05/13 07:34:37;;;;;;;9.48;8.48;;;17.10;63.90;;;;;;5028632;28;20038;-46
2023/05/13 07:37:04;;;;;;;9.50;8.57;;;17.10;63.30;;;;;;5027432;28;20568;-46
2023/05/13 07:39:30;;;;;;;10.23;9.32;;;17.20;63.30;;;;;;5029042;28;20046;-45
2023/05/13 07:41:57;;;;;;;9.00;8.10;;;17.20;63.20;;;;;;5026621;28;20048;-49
2023/05/13 07:44:24;;;;;;;9.38;8.48;;;17.30;63.10;;;;;;5025727;28;20041;-45
2023/05/13 07:46:52;;;;;;;9.35;8.38;;;17.40;63.20;;;;;;5023561;28;20049;-46
2023/05/13 07:49:19;;;;;;;8.70;7.90;;;17.40;62.70;;;;;;5025754;28;20052;-46
2023/05/13 07:51:46;;;;;;;9.68;8.30;;;17.50;62.40;;;;;;5018750;28;20041;-45
2023/05/13 07:54:13;;;;;;;9.40;8.50;;;17.50;62.30;;;;;;5025994;28;20045;-45
2023/05/13 07:56:39;;;;;;;8.05;7.25;;;17.50;62.20;;;;;;5027637;28;20506;-45
2023/05/13 07:59:06;;;;;;;10.93;8.38;;;17.60;62.00;;;;;;5029519;28;20056;-49
2023/05/13 08:01:32;;;;;;;9.00;8.10;;;17.70;61.80;;;;;;5027510;28;20041;-47
2023/05/13 08:03:59;;;;;;;12.00;9.38;;;17.80;62.10;;;;;;5028013;28;20049;-45
2023/05/13 08:06:26;;;;;;;9.82;8.57;;;17.80;62.20;;;;;;5026906;28;20502;-48
2023/05/13 08:08:55;;;;;;;10.93;8.13;;;17.90;62.60;;;;;;5025487;28;20038;-46
2023/05/13 08:11:22;;;;;;;9.55;7.97;;;18.00;62.00;;;;;;5027405;28;20033;-46
2023/05/13 08:13:50;;;;;;;11.00;8.50;;;18.00;62.00;;;;;;5027776;28;20029;-46
2023/05/13 08:16:17;;;;;;;9.00;8.10;;;18.10;61.50;;;;;;5027775;28;20037;-46
2023/05/13 08:18:46;;;;;;;10.73;9.13;;;18.10;61.60;;;;;;5028315;28;20125;-48
2023/05/13 08:21:13;;;;;;;10.77;8.85;;;18.20;60.90;;;;;;5029276;28;21073;-46
2023/05/13 08:23:40;;;;;;;10.82;9.07;;;18.30;61.20;;;;;;5023093;28;20044;-46
2023/05/13 08:26:14;;;;;;;10.18;8.88;;;18.30;61.20;;;;;;5027459;28;20668;-49
2023/05/13 08:28:41;;;;;;;9.90;8.90;;;18.40;60.80;;;;;;5024991;28;20056;-46
2023/05/13 08:31:11;;;;;;;9.40;8.38;;;18.50;60.50;;;;;;5028733;28;20045;-46
2023/05/13 08:33:40;;;;;;;9.93;8.93;;;18.50;60.40;;;;;;5026135;28;20052;-46
2023/05/13 08:36:10;;;;;;;9.68;8.73;;;18.60;60.40;;;;;;5028000;28;20052;-46
2023/05/13 08:38:36;;;;;;;8.90;7.95;;;18.60;61.00;;;;;;5033063;28;20046;-49
2023/05/13 08:41:05;;;;;;;10.25;9.35;;;18.70;60.60;;;;;;5032457;28;20045;-49
2023/05/13 08:43:34;;;;;;;9.90;8.90;;;18.70;60.80;;;;;;5029638;28;20045;-46
2023/05/13 08:46:05;;;;;;;10.30;7.88;;;18.80;60.40;;;;;;5030714;28;20037;-46
2023/05/13 08:48:37;;;;;;;8.75;7.82;;;18.80;60.40;;;;;;5015541;28;20047;-49
2023/05/13 08:51:05;;;;;;;8.68;7.82;;;18.90;60.40;;;;;;5032353;28;20041;-45
2023/05/13 08:53:34;;;;;;;8.20;7.13;;;18.90;59.80;;;;;;5021485;28;20038;-49
2023/05/13 08:56:01;;;;;;;11.65;6.95;;;19.00;59.70;;;;;;5028727;28;20053;-46
2023/05/13 08:58:28;;;;;;;10.98;7.05;;;19.10;59.60;;;;;;5025123;28;20059;-45
2023/05/13 09:00:55;;;;;;;7.30;6.60;;;19.10;58.60;;;;;;5031053;28;20037;-45
2023/05/13 09:03:22;;;;;;;8.43;7.63;;;19.30;60.10;;;;;;5030595;28;20037;-49
2023/05/13 09:05:48;;;;;;;8.88;7.30;;;19.30;59.20;;;;;;5027778;28;20425;-46
2023/05/13 09:08:15;;;;;;;9.55;7.32;;;19.40;58.60;;;;;;5030803;28;20044;-46
2023/05/13 09:10:42;;;;;;;8.48;6.80;;;19.50;58.40;;;;;;5029411;28;20041;-46
2023/05/13 09:13:11;;;;;;;7.63;6.93;;;19.60;59.10;;;;;;5025907;28;20044;-45
2023/05/13 09:15:40;;;;;;;8.40;6.95;;;19.60;59.70;;;;;;5027334;28;20057;-46
2023/05/13 09:18:07;;;;;;;7.72;6.93;;;19.70;58.30;;;;;;5014198;28;20041;-45
2023/05/13 09:20:34;;;;;;;7.15;6.32;;;19.80;58.00;;;;;;5031222;28;20045;-49
2023/05/13 09:23:03;;;;;;;7.80;5.85;;;19.90;57.80;;;;;;5030728;28;20052;-45
2023/05/13 09:25:30;;;;;;;9.93;6.93;;;19.90;57.90;;;;;;5027950;28;20044;-46
2023/05/13 09:28:01;;;;;;;8.20;7.40;;;20.00;58.40;;;;;;5031860;28;20045;-50
2023/05/13 09:30:32;;;;;;;7.57;6.80;;;20.10;58.30;;;;;;5028641;28;20120;-50
2023/05/13 09:33:15;;;;;;;7.65;5.80;;;20.10;57.90;;;;;;5031445;28;20038;-47
2023/05/13 09:35:51;;;;;;;7.43;5.80;;;20.30;56.30;;;;;;5027823;28;20120;-47
2023/05/13 09:38:26;;;;;;;6.13;5.55;;;20.30;54.80;;;;;;5031640;28;20163;-46
2023/05/13 09:40:54;;;;;;;9.75;5.93;;;20.40;55.50;;;;;;5031204;28;20052;-50
2023/05/13 09:43:24;;;;;;;6.32;5.72;;;20.40;55.30;;;;;;5029470;28;20124;-48
2023/05/13 09:45:55;;;;;;;7.50;5.82;;;20.50;54.90;;;;;;5029065;28;20761;-49
2023/05/13 09:48:24;;;;;;;6.85;6.20;;;20.50;55.20;;;;;;5031039;28;20041;-49
2023/05/13 09:50:53;;;;;;;7.28;6.32;;;20.60;54.90;;;;;;5030989;28;20046;-49
2023/05/13 09:53:20;;;;;;;9.10;6.38;;;20.70;55.10;;;;;;5027900;28;20049;-47
2023/05/13 09:55:48;;;;;;;7.35;5.70;;;20.70;54.90;;;;;;5030274;28;20043;-47
2023/05/13 09:58:15;;;;;;;6.40;5.72;;;20.80;54.10;;;;;;5028922;28;20113;-49
2023/05/13 10:00:43;;;;;;;7.80;5.78;;;20.80;53.30;;;;;;5029989;28;20417;-48
2023/05/13 10:03:10;;;;;;;7.13;6.10;;;20.90;53.10;;;;;;5027827;28;20075;-45
2023/05/13 10:05:41;;;;;;;8.77;6.32;;;21.00;53.60;;;;;;5027844;28;20042;-49
2023/05/13 10:08:09;;;;;;;7.55;5.78;;;21.00;53.40;;;;;;5030987;28;20046;-48
2023/05/13 10:10:36;;;;;;;7.40;5.85;;;21.10;53.80;;;;;;5030269;28;20490;-46
2023/05/13 10:13:09;;;;;;;6.45;5.80;;;21.10;54.10;;;;;;5029844;28;20452;-49
2023/05/13 10:15:47;;;;;;;5.97;5.07;;;21.20;55.00;;;;;;5027737;28;20512;-47
2023/05/13 10:18:16;;;;;;;5.82;5.32;;;21.30;53.10;;;;;;5029164;28;20050;-49
2023/05/13 10:20:43;;;;;;;6.63;6.00;;;21.40;53.60;;;;;;5029040;28;20041;-50
2023/05/13 10:23:11;;;;;;;8.00;5.63;;;21.40;53.30;;;;;;5030334;28;20060;-49
2023/05/13 10:25:38;;;;;;;5.28;4.85;;;21.50;54.10;;;;;;5028435;28;20045;-46
2023/05/13 10:28:04;;;;;;;5.90;5.32;;;21.60;53.60;;;;;;5007705;28;20145;-49
2023/05/13 10:30:34;;;;;;;7.10;6.07;;;21.60;53.30;;;;;;5029649;28;20068;-52
2023/05/13 10:33:03;;;;;;;8.63;6.35;;;21.70;53.10;;;;;;5029335;28;20464;-46
2023/05/13 10:35:41;;;;;;;7.88;5.68;;;21.80;52.30;;;;;;5027960;28;20037;-48
2023/05/13 10:38:42;;;;;;;6.15;5.15;;;21.80;50.90;;;;;;5030157;28;20072;-50
2023/05/13 10:42:01;;;;;;;6.25;5.65;;;21.90;52.90;;;;;;5029266;28;20042;-48
2023/05/13 10:44:28;;;;;;;8.82;5.95;;;22.00;52.60;;;;;;5028128;28;20120;-46
2023/05/13 10:46:57;;;;;;;5.32;4.82;;;22.10;52.50;;;;;;5027151;28;20041;-49
2023/05/13 10:49:32;;;;;;;5.85;5.25;;;22.10;52.70;;;;;;5009941;28;21869;-48
2023/05/13 10:52:06;;;;;;;5.53;4.75;;;22.20;52.10;;;;;;5029544;28;20121;-45
2023/05/13 10:54:39;;;;;;;5.20;4.70;;;22.30;51.60;;;;;;5025924;28;20048;-49
2023/05/13 10:57:06;;;;;;;5.57;4.82;;;22.30;51.50;;;;;;5029729;28;20047;-46
2023/05/13 10:59:34;;;;;;;6.50;4.80;;;22.30;51.60;;;;;;5028398;28;20044;-48
2023/05/13 11:02:18;;;;;;;6.63;4.72;;;22.40;50.70;;;;;;5011596;28;20057;-48
2023/05/13 11:04:59;;;;;;;4.85;4.35;;;22.50;50.30;;;;;;5027089;28;20128;-46
2023/05/13 11:07:28;;;;;;;5.07;4.30;;;22.60;49.80;;;;;;5028861;28;20076;-49
2023/05/13 11:09:55;;;;;;;6.88;4.28;;;22.70;49.30;;;;;;5027743;28;20033;-46
2023/05/13 11:12:22;;;;;;;5.18;3.72;;;22.70;48.80;;;;;;5028174;28;20041;-50
2023/05/13 11:14:48;;;;;;;5.75;4.70;;;22.80;49.00;;;;;;5027645;28;20605;-47
2023/05/13 11:17:18;;;;;;;5.10;4.60;;;22.80;49.40;;;;;;5032517;28;20064;-46
2023/05/13 11:19:47;;;;;;;6.30;5.28;;;22.90;49.40;;;;;;5027953;28;20041;-49
2023/05/13 11:22:15;;;;;;;6.40;5.18;;;22.90;49.70;;;;;;5028564;28;20042;-49
2023/05/13 11:25:01;;;;;;;5.85;5.20;;;23.00;50.20;;;;;;5027707;28;20048;-49
2023/05/13 11:27:37;;;;;;;7.63;6.20;;;23.00;50.20;;;;;;5024502;28;20047;-48
2023/05/13 11:30:20;;;;;;;5.50;4.95;;;23.10;49.50;;;;;;5028402;28;20524;-46
2023/05/13 11:32:54;;;;;;;5.75;5.15;;;23.10;49.00;;;;;;5023761;28;20045;-50
2023/05/13 11:35:26;;;;;;;5.78;4.95;;;23.10;49.30;;;;;;5028084;28;20042;-50
2023/05/13 11:37:54;;;;;;;7.60;4.80;;;23.20;49.00;;;;;;5029766;28;20033;-49
2023/05/13 11:40:32;;;;;;;5.40;4.78;;;23.30;48.70;;;;;;4989370;28;20046;-50
2023/05/13 11:43:00;;;;;;;4.70;4.25;;;23.30;49.00;;;;;;5028216;28;20034;-49
2023/05/13 11:45:28;;;;;;;6.28;4.22;;;23.40;49.80;;;;;;5027119;28;20720;-49
2023/05/13 11:47:56;;;;;;;7.10;4.47;;;23.50;49.20;;;;;;5028931;28;20462;-49
2023/05/13 11:50:31;;;;;;;4.97;4.60;;;23.50;48.60;;;;;;5026980;28;20041;-46
2023/05/13 11:52:59;;;;;;;4.10;3.72;;;23.60;47.90;;;;;;5026604;28;20041;-49
2023/05/13 11:55:36;;;;;;;4.65;3.72;;;23.70;47.80;;;;;;5027271;28;20041;-50
2023/05/13 11:58:03;;;;;;;3.00;2.80;;;23.80;47.50;;;;;;5029419;28;20470;-49
2023/05/13 12:00:32;;;;;;;5.90;4.15;;;23.90;47.50;;;;;;5028270;28;20678;-50
2023/05/13 12:03:01;;;;;;;5.07;3.13;;;24.10;45.70;;;;;;5027252;28;20045;-49
2023/05/13 12:05:29;;;;;;;3.50;3.00;;;24.20;46.10;;;;;;5027735;28;20041;-50
2023/05/13 12:07:56;;;;;;;3.88;3.58;;;24.30;44.90;;;;;;5029350;28;20076;-50
2023/05/13 12:10:24;;;;;;;3.47;3.22;;;24.40;45.00;;;;;;5023760;28;20099;-48
2023/05/13 12:12:51;;;;;;;3.88;3.30;;;24.50;43.80;;;;;;5032657;28;20047;-49
2023/05/13 12:15:20;;;;;;;3.65;3.35;;;24.60;44.00;;;;;;5030939;28;20045;-50
2023/05/13 12:17:48;;;;;;;9.90;3.50;;;24.70;43.60;;;;;;5035480;28;20044;-48
2023/05/13 12:20:22;;;;;;;4.28;3.88;;;24.70;43.30;;;;;;5031502;28;20037;-50
2023/05/13 12:22:48;;;;;;;4.22;3.17;;;24.80;42.90;;;;;;5032464;28;20045;-50
2023/05/13 12:25:34;;;;;;;4.28;3.47;;;24.90;42.70;;;;;;5008260;28;20422;-51
2023/05/13 12:28:23;;;;;;;3.75;3.42;;;24.90;43.40;;;;;;5032890;28;20072;-47
2023/05/13 12:31:04;;;;;;;3.83;3.50;;;25.00;41.60;;;;;;5026191;28;20045;-50
2023/05/13 12:33:40;;;;;;;6.75;4.47;;;25.10;41.50;;;;;;5029644;28;20076;-50
2023/05/13 12:36:24;;;;;;;5.38;3.65;;;25.10;41.20;;;;;;5012982;28;20041;-46
2023/05/13 12:38:59;;;;;;;4.90;3.22;;;25.20;41.50;;;;;;5028101;28;20034;-50
2023/05/13 12:41:29;;;;;;;3.10;2.80;;;25.30;42.30;;;;;;5030890;28;20111;-46
2023/05/13 12:44:00;;;;;;;3.83;3.38;;;25.40;41.10;;;;;;5030753;28;20080;-49
2023/05/13 12:46:27;;;;;;;8.05;4.15;;;25.40;40.60;;;;;;5030148;28;20042;-48
2023/05/13 12:48:56;;;;;;;3.40;3.20;;;25.50;40.70;;;;;;5029223;28;20084;-50
2023/05/13 12:51:23;;;;;;;3.20;3.00;;;25.70;39.90;;;;;;5029650;28;20144;-49
2023/05/13 12:53:53;;;;;;;4.43;3.63;;;25.70;40.00;;;;;;5030284;28;20030;-51
2023/05/13 12:56:21;;;;;;;3.63;3.08;;;25.70;40.50;;;;;;5031502;28;20401;-50
2023/05/13 12:58:49;;;;;;;3.13;2.88;;;25.90;40.90;;;;;;5032271;28;20041;-50